Time;durP1;ratioP1;P1;durP2;ratioP2;P2;SDS_P1;SDS_P2;PMS_P1;PMS_P2;Temp;Humidity;BMP_temperature;BMP_pressure;BME280_temperature;BME280_humidity;BME280_pressure;Samples;Min_cycle;Max_cycle;Signal;HPM_P1;HPM_P2
2023/01/10 00:01:36;;;;;;;3.07;1.60;;;8.20;99.90;;;;;;5017588;28;20194;-74
2023/01/10 00:04:01;;;;;;;3.40;2.10;;;8.20;99.90;;;;;;5014712;28;20888;-75
2023/01/10 00:06:27;;;;;;;2.73;1.90;;;8.10;99.90;;;;;;5013147;28;20490;-74
2023/01/10 00:08:53;;;;;;;3.43;1.90;;;8.10;99.90;;;;;;5015725;28;20632;-74
2023/01/10 00:14:02;;;;;;;2.70;1.87;;;8.00;99.90;;;;;;5013467;28;20239;-75
2023/01/10 00:16:28;;;;;;;2.77;1.87;;;8.00;99.90;;;;;;5013706;28;20472;-73
2023/01/10 00:18:53;;;;;;;3.70;2.10;;;8.00;99.90;;;;;;5014620;28;20199;-73
2023/01/10 00:21:19;;;;;;;2.90;1.60;;;8.00;99.90;;;;;;5017014;28;20189;-72
2023/01/10 00:23:44;;;;;;;3.40;2.10;;;8.10;99.90;;;;;;5018200;28;20196;-72
2023/01/10 00:26:10;;;;;;;2.37;1.67;;;8.20;99.90;;;;;;5020563;28;20208;-71
2023/01/10 00:28:38;;;;;;;2.90;1.63;;;8.20;99.90;;;;;;5016062;28;20192;-72
2023/01/10 00:31:05;;;;;;;2.13;1.40;;;8.20;99.90;;;;;;5019520;28;20430;-73
2023/01/10 00:33:32;;;;;;;2.00;1.80;;;8.20;99.90;;;;;;5019713;28;20430;-73
2023/01/10 00:35:58;;;;;;;2.97;1.60;;;8.20;99.90;;;;;;5017276;28;20459;-73
2023/01/10 00:38:24;;;;;;;3.07;1.70;;;8.20;99.90;;;;;;5020591;28;20436;-73
2023/01/10 00:40:49;;;;;;;3.83;1.93;;;8.30;99.90;;;;;;5021724;28;20431;-73
2023/01/10 00:46:01;;;;;;;3.60;1.70;;;8.20;99.90;;;;;;5022052;28;20238;-72
2023/01/10 00:48:27;;;;;;;2.43;2.00;;;8.20;99.90;;;;;;5020538;28;20423;-72
2023/01/10 00:50:53;;;;;;;3.90;1.90;;;8.20;99.90;;;;;;5020474;28;21116;-71
2023/01/10 00:53:18;;;;;;;2.10;1.70;;;8.10;99.90;;;;;;5018648;28;20181;-71
2023/01/10 00:55:44;;;;;;;2.63;2.30;;;8.20;99.90;;;;;;5019232;28;20212;-72
2023/01/10 00:58:10;;;;;;;2.40;1.60;;;8.20;99.90;;;;;;5021248;28;20206;-72
2023/01/10 01:00:38;;;;;;;3.80;2.20;;;8.20;99.90;;;;;;5020568;28;20195;-71
2023/01/10 01:03:04;;;;;;;2.90;2.00;;;8.00;99.90;;;;;;5019530;28;20446;-72
2023/01/10 01:05:30;;;;;;;3.23;2.00;;;8.00;99.90;;;;;;5020650;28;20423;-72
2023/01/10 01:07:56;;;;;;;2.80;1.70;;;8.10;99.90;;;;;;5017323;28;20435;-72
2023/01/10 01:10:27;;;;;;;3.67;2.00;;;8.00;99.90;;;;;;5024699;28;20266;-72
2023/01/10 01:13:14;;;;;;;2.43;1.50;;;8.10;99.90;;;;;;5017435;28;20180;-71
2023/01/10 01:15:40;;;;;;;4.00;2.00;;;8.00;99.90;;;;;;5017198;28;20471;-71
2023/01/10 01:18:06;;;;;;;3.93;2.17;;;7.80;99.90;;;;;;5016660;28;20437;-72
2023/01/10 01:20:32;;;;;;;2.73;1.67;;;7.80;99.90;;;;;;5014212;28;20193;-71
2023/01/10 01:22:59;;;;;;;3.63;1.97;;;7.80;99.90;;;;;;5017102;28;20439;-73
2023/01/10 01:25:26;;;;;;;2.40;1.87;;;7.80;99.90;;;;;;5022588;28;20419;-72
2023/01/10 01:27:51;;;;;;;3.20;1.83;;;7.80;99.90;;;;;;5018462;28;20447;-72
2023/01/10 01:30:17;;;;;;;2.30;1.90;;;7.80;99.90;;;;;;5016416;28;20554;-72
2023/01/10 01:32:42;;;;;;;3.13;1.97;;;7.80;99.90;;;;;;5021282;28;20177;-72
2023/01/10 01:35:12;;;;;;;3.63;1.90;;;7.70;99.90;;;;;;5021499;28;20322;-72
2023/01/10 01:37:38;;;;;;;2.20;1.43;;;7.70;99.90;;;;;;5015118;28;20219;-72
2023/01/10 01:40:04;;;;;;;2.83;1.40;;;7.60;99.90;;;;;;5015382;28;20434;-72
2023/01/10 01:42:32;;;;;;;3.33;1.70;;;7.50;99.90;;;;;;5017771;28;20315;-72
2023/01/10 01:45:31;;;;;;;3.00;2.77;;;7.60;99.90;;;;;;5021831;28;20836;-71
2023/01/10 01:48:05;;;;;;;2.70;1.63;;;7.60;99.90;;;;;;5014988;28;20454;-71
2023/01/10 01:50:42;;;;;;;2.00;1.40;;;7.60;99.90;;;;;;5019113;28;20467;-71
2023/01/10 01:53:17;;;;;;;1.87;1.50;;;7.60;99.90;;;;;;5013189;28;20449;-72
2023/01/10 01:55:45;;;;;;;4.60;1.73;;;7.60;99.90;;;;;;5021410;28;20435;-70
2023/01/10 01:58:20;;;;;;;3.57;1.37;;;7.60;99.90;;;;;;5019491;28;20527;-73
2023/01/10 02:00:46;;;;;;;3.20;1.30;;;7.60;99.90;;;;;;5018326;28;20982;-74
2023/01/10 02:03:13;;;;;;;5.90;1.50;;;7.60;99.90;;;;;;5021169;28;20439;-74
2023/01/10 02:05:41;;;;;;;1.70;1.40;;;7.70;99.90;;;;;;5023791;28;20771;-74
2023/01/10 02:08:06;;;;;;;4.13;1.63;;;7.70;99.90;;;;;;5021467;28;20454;-73
2023/01/10 02:10:47;;;;;;;3.30;1.70;;;7.80;99.90;;;;;;5023368;28;21068;-73
2023/01/10 02:13:16;;;;;;;3.23;1.60;;;7.80;99.90;;;;;;5012476;28;20177;-73
2023/01/10 02:15:42;;;;;;;2.07;1.73;;;7.90;99.90;;;;;;5014819;28;20906;-70
2023/01/10 02:18:08;;;;;;;3.70;2.10;;;7.90;99.90;;;;;;5020284;28;20541;-70
2023/01/10 02:20:55;;;;;;;2.50;1.50;;;8.00;99.90;;;;;;5017946;28;20193;-70
2023/01/10 02:23:39;;;;;;;2.87;1.97;;;7.90;99.90;;;;;;5011223;28;20442;-71
2023/01/10 02:26:44;;;;;;;4.27;1.40;;;7.90;99.90;;;;;;5014685;28;20596;-70
2023/01/10 02:29:28;;;;;;;2.20;1.70;;;7.90;99.90;;;;;;5015870;28;20466;-71
2023/01/10 02:32:18;;;;;;;3.87;1.50;;;8.00;99.90;;;;;;5016793;28;20435;-71
2023/01/10 02:35:22;;;;;;;3.73;1.63;;;7.90;99.90;;;;;;5011799;28;20454;-72
2023/01/10 02:38:15;;;;;;;2.70;1.50;;;8.00;99.90;;;;;;5010941;28;20516;-72
2023/01/10 02:41:03;;;;;;;3.20;1.57;;;7.90;99.90;;;;;;5017146;28;20486;-71
2023/01/10 02:43:40;;;;;;;2.70;1.50;;;8.00;99.90;;;;;;5018202;28;20720;-71
2023/01/10 02:46:12;;;;;;;1.80;1.33;;;7.90;99.90;;;;;;5015024;28;20818;-71
2023/01/10 02:48:37;;;;;;;2.30;1.80;;;7.90;99.90;;;;;;5012247;28;20443;-70
2023/01/10 02:51:13;;;;;;;2.00;1.30;;;7.90;99.90;;;;;;5015930;28;20464;-71
2023/01/10 02:53:46;;;;;;;3.97;2.00;;;7.80;99.90;;;;;;5016893;28;20176;-71
2023/01/10 02:56:29;;;;;;;2.83;1.40;;;7.70;99.90;;;;;;5012614;28;20523;-71
2023/01/10 02:59:19;;;;;;;2.00;1.40;;;7.80;99.90;;;;;;5015115;28;20540;-71
2023/01/10 03:02:02;;;;;;;2.67;1.50;;;7.80;99.90;;;;;;5015927;28;20447;-71
2023/01/10 03:04:44;;;;;;;3.30;1.50;;;7.80;99.90;;;;;;5017773;28;20493;-71
2023/01/10 03:07:42;;;;;;;1.63;1.30;;;7.90;99.90;;;;;;5016291;28;20472;-70
2023/01/10 03:10:27;;;;;;;3.43;1.57;;;7.90;99.90;;;;;;5017858;28;20474;-71
2023/01/10 03:13:04;;;;;;;3.53;1.67;;;7.90;99.90;;;;;;5013798;28;20447;-71
2023/01/10 03:15:35;;;;;;;3.00;1.50;;;7.80;99.90;;;;;;5010054;28;20435;-71
2023/01/10 03:18:05;;;;;;;4.47;1.70;;;7.70;99.90;;;;;;5012868;28;20451;-71
2023/01/10 03:20:36;;;;;;;2.67;1.40;;;7.80;99.90;;;;;;5013846;28;20439;-72
2023/01/10 03:23:04;;;;;;;3.30;1.67;;;7.70;99.90;;;;;;5011681;28;20526;-72
2023/01/10 03:25:34;;;;;;;3.73;1.50;;;7.80;99.90;;;;;;5011528;28;20435;-71
2023/01/10 03:28:10;;;;;;;4.70;1.50;;;7.80;99.90;;;;;;5016416;28;20450;-71
2023/01/10 03:30:47;;;;;;;2.20;1.50;;;7.80;99.90;;;;;;5017470;28;20464;-72
2023/01/10 03:33:17;;;;;;;2.83;1.47;;;7.80;99.90;;;;;;5013222;28;20440;-72
2023/01/10 03:36:01;;;;;;;3.70;1.97;;;7.90;99.90;;;;;;5015488;28;20550;-71
2023/01/10 03:38:40;;;;;;;3.23;1.87;;;7.90;99.90;;;;;;5013089;28;20435;-71
2023/01/10 03:41:33;;;;;;;4.37;1.90;;;7.80;99.90;;;;;;5014527;28;21249;-70
2023/01/10 03:44:43;;;;;;;4.67;1.83;;;7.80;99.90;;;;;;5017430;28;20644;-71
2023/01/10 03:47:29;;;;;;;4.57;2.00;;;7.70;99.90;;;;;;5016508;28;20529;-71
2023/01/10 03:50:05;;;;;;;5.40;1.60;;;7.70;99.90;;;;;;5015979;28;20479;-70
2023/01/10 03:52:33;;;;;;;4.10;2.70;;;7.70;99.90;;;;;;5017254;28;20447;-71
2023/01/10 03:54:59;;;;;;;6.43;2.03;;;7.70;99.90;;;;;;5015300;28;20447;-70
2023/01/10 03:57:25;;;;;;;4.70;2.13;;;7.80;99.90;;;;;;5020051;28;20451;-71
2023/01/10 03:59:53;;;;;;;7.03;2.07;;;7.80;99.90;;;;;;5015911;28;20443;-70
2023/01/10 04:02:19;;;;;;;5.40;2.20;;;7.90;99.90;;;;;;5019837;28;20419;-70
2023/01/10 04:04:45;;;;;;;8.47;2.77;;;7.80;99.90;;;;;;5017725;28;20476;-71
2023/01/10 04:07:10;;;;;;;4.20;2.30;;;7.80;99.90;;;;;;5014923;28;20219;-70
2023/01/10 04:09:36;;;;;;;12.60;3.33;;;7.80;99.90;;;;;;5010518;28;20200;-70
2023/01/10 04:12:02;;;;;;;7.40;2.57;;;7.70;99.90;;;;;;5014399;28;20180;-71
2023/01/10 04:14:27;;;;;;;13.80;3.37;;;7.70;99.90;;;;;;5016781;28;20180;-71
2023/01/10 04:16:54;;;;;;;7.53;2.80;;;7.80;99.90;;;;;;5015492;28;20212;-70
2023/01/10 04:19:20;;;;;;;12.53;3.40;;;7.80;99.90;;;;;;5015733;28;20441;-70
2023/01/10 04:21:45;;;;;;;13.73;3.83;;;7.70;99.90;;;;;;5015397;28;20443;-71
2023/01/10 04:24:11;;;;;;;10.10;2.57;;;7.80;99.90;;;;;;5012679;28;20963;-71
2023/01/10 04:26:37;;;;;;;7.10;2.60;;;7.90;99.90;;;;;;5019368;28;20243;-71
2023/01/10 04:29:02;;;;;;;12.50;4.50;;;7.90;99.90;;;;;;5014754;28;20212;-72
2023/01/10 04:31:28;;;;;;;8.73;2.37;;;7.90;99.90;;;;;;5013321;28;20196;-71
2023/01/10 04:33:53;;;;;;;12.63;2.50;;;8.00;99.90;;;;;;5010794;28;20184;-71
2023/01/10 04:36:19;;;;;;;5.57;2.40;;;7.90;99.90;;;;;;5016911;28;20223;-70
2023/01/10 04:38:44;;;;;;;14.77;3.17;;;7.90;99.90;;;;;;5011745;28;20185;-70
2023/01/10 04:41:10;;;;;;;6.73;2.83;;;8.00;99.90;;;;;;5015911;28;20815;-71
2023/01/10 04:43:35;;;;;;;6.77;2.30;;;8.00;99.90;;;;;;5014770;28;20223;-71
2023/01/10 04:46:01;;;;;;;11.00;3.37;;;7.90;99.90;;;;;;5010454;28;20209;-71
2023/01/10 04:48:27;;;;;;;12.07;2.97;;;7.90;99.90;;;;;;5014586;28;20185;-71
2023/01/10 04:50:53;;;;;;;9.20;2.80;;;7.80;99.90;;;;;;5008245;28;20319;-71
2023/01/10 04:53:20;;;;;;;9.90;3.40;;;7.80;99.90;;;;;;5013358;28;20242;-71
2023/01/10 04:55:46;;;;;;;4.90;2.10;;;7.80;99.90;;;;;;5012591;28;20995;-71
2023/01/10 04:58:12;;;;;;;10.97;2.80;;;7.80;99.90;;;;;;5013674;28;20541;-71
2023/01/10 05:00:38;;;;;;;7.57;2.20;;;7.70;99.90;;;;;;5013659;28;21136;-71
2023/01/10 05:03:04;;;;;;;11.93;2.73;;;7.80;99.90;;;;;;5010490;28;20428;-72
2023/01/10 05:05:30;;;;;;;10.53;3.07;;;7.80;99.90;;;;;;5017322;28;20560;-71
2023/01/10 05:07:56;;;;;;;8.47;2.67;;;7.80;99.90;;;;;;5014378;28;20223;-71
2023/01/10 05:10:22;;;;;;;8.27;3.03;;;7.80;99.90;;;;;;5020918;28;21310;-71
2023/01/10 05:12:47;;;;;;;18.63;3.50;;;7.80;99.90;;;;;;5024953;28;20450;-73
2023/01/10 05:15:13;;;;;;;14.73;2.80;;;7.90;99.90;;;;;;5016029;28;20194;-73
2023/01/10 05:17:39;;;;;;;12.70;3.10;;;7.80;99.90;;;;;;5020241;28;20212;-72
2023/01/10 05:20:06;;;;;;;7.03;3.00;;;7.80;99.90;;;;;;5015048;28;20370;-73
2023/01/10 05:22:31;;;;;;;12.17;4.10;;;7.70;99.90;;;;;;5020212;28;20455;-72
2023/01/10 05:24:57;;;;;;;8.47;2.50;;;7.80;99.90;;;;;;5019003;28;20937;-72
2023/01/10 05:27:22;;;;;;;12.30;2.30;;;7.80;99.90;;;;;;5018124;28;20236;-72
2023/01/10 05:29:48;;;;;;;7.47;2.80;;;7.90;99.90;;;;;;5018742;28;20217;-71
2023/01/10 05:32:14;;;;;;;14.00;3.30;;;7.90;99.90;;;;;;5013777;28;20230;-73
2023/01/10 05:34:40;;;;;;;11.27;2.70;;;7.90;99.90;;;;;;5019746;28;20189;-73
2023/01/10 05:37:05;;;;;;;7.40;2.73;;;7.90;99.90;;;;;;5018103;28;20288;-72
2023/01/10 05:39:31;;;;;;;11.40;3.13;;;7.90;99.90;;;;;;5020634;28;20545;-73
2023/01/10 05:41:56;;;;;;;9.33;3.73;;;7.90;99.90;;;;;;5019274;28;20193;-71
2023/01/10 05:44:22;;;;;;;6.00;2.73;;;7.90;99.90;;;;;;5017630;28;20193;-71
2023/01/10 05:46:47;;;;;;;8.97;3.07;;;7.90;99.90;;;;;;5022978;28;20204;-72
2023/01/10 05:49:13;;;;;;;6.80;3.03;;;7.80;99.90;;;;;;5020348;28;21041;-73
2023/01/10 05:51:38;;;;;;;12.17;3.83;;;7.70;99.90;;;;;;5025154;28;20200;-72
2023/01/10 05:54:04;;;;;;;13.93;3.47;;;7.70;99.90;;;;;;5016269;28;20262;-73
2023/01/10 05:56:30;;;;;;;12.33;3.27;;;7.70;99.90;;;;;;5026926;28;20207;-73
2023/01/10 05:58:56;;;;;;;10.93;2.73;;;7.70;99.90;;;;;;5020057;28;20423;-73
2023/01/10 06:01:21;;;;;;;12.47;3.33;;;7.80;99.90;;;;;;5021966;28;20180;-72
2023/01/10 06:03:47;;;;;;;10.60;2.63;;;7.70;99.90;;;;;;5017337;28;20572;-73
2023/01/10 06:06:13;;;;;;;10.93;3.87;;;7.80;99.90;;;;;;5019607;28;20673;-71
2023/01/10 06:08:39;;;;;;;11.23;3.30;;;7.90;99.90;;;;;;5023058;28;20435;-71
2023/01/10 06:11:05;;;;;;;13.83;4.10;;;7.80;99.90;;;;;;5022311;28;20177;-71
2023/01/10 06:13:31;;;;;;;11.70;3.23;;;7.80;99.90;;;;;;5016248;28;20879;-72
2023/01/10 06:15:57;;;;;;;9.80;3.10;;;7.70;99.90;;;;;;5023743;28;20545;-72
2023/01/10 06:18:22;;;;;;;7.70;2.63;;;7.80;99.90;;;;;;5019842;28;20192;-72
2023/01/10 06:20:48;;;;;;;11.80;3.20;;;7.90;99.90;;;;;;5015196;28;20234;-72
2023/01/10 06:23:14;;;;;;;18.70;3.30;;;7.70;99.90;;;;;;5020145;28;20664;-72
2023/01/10 06:25:40;;;;;;;18.17;3.50;;;7.70;99.90;;;;;;5019185;28;20205;-72
2023/01/10 06:28:11;;;;;;;8.70;2.73;;;7.70;99.90;;;;;;5017445;28;20567;-72
2023/01/10 06:30:37;;;;;;;9.87;3.20;;;7.70;99.90;;;;;;5018964;28;20482;-72
2023/01/10 06:33:07;;;;;;;13.77;4.13;;;7.70;99.90;;;;;;5017319;28;20439;-72
2023/01/10 06:35:33;;;;;;;10.87;3.70;;;7.80;99.90;;;;;;5018228;28;20439;-72
2023/01/10 06:37:59;;;;;;;12.83;2.80;;;7.80;99.90;;;;;;5012557;28;20891;-73
2023/01/10 06:40:26;;;;;;;16.90;3.50;;;7.80;99.90;;;;;;5013320;28;20470;-71
2023/01/10 06:42:52;;;;;;;10.30;4.27;;;7.80;99.90;;;;;;5010122;28;20693;-70
2023/01/10 06:45:17;;;;;;;3.63;2.27;;;7.80;99.90;;;;;;5011710;28;20456;-70
2023/01/10 06:47:43;;;;;;;13.70;3.47;;;7.90;99.90;;;;;;5017170;28;20255;-71
2023/01/10 06:50:09;;;;;;;12.47;2.83;;;7.90;99.90;;;;;;5016255;28;20700;-71
2023/01/10 06:52:35;;;;;;;6.43;3.10;;;7.80;99.90;;;;;;5016510;28;20250;-72
2023/01/10 06:55:00;;;;;;;5.80;3.00;;;7.80;99.90;;;;;;5016569;28;20458;-72
2023/01/10 06:57:27;;;;;;;9.93;3.50;;;7.80;99.90;;;;;;5016207;28;20905;-71
2023/01/10 06:59:53;;;;;;;8.20;3.40;;;7.80;99.90;;;;;;5019477;28;20697;-71
2023/01/10 07:02:19;;;;;;;11.40;3.37;;;7.80;99.90;;;;;;5014747;28;20427;-71
2023/01/10 07:04:44;;;;;;;7.40;2.80;;;7.60;99.90;;;;;;5019348;28;20805;-71
2023/01/10 07:07:10;;;;;;;11.03;3.47;;;7.60;99.90;;;;;;5012590;28;20970;-72
2023/01/10 07:09:35;;;;;;;10.67;3.30;;;7.60;99.90;;;;;;5017085;28;20311;-72
2023/01/10 07:12:01;;;;;;;13.27;3.93;;;7.60;99.90;;;;;;5014650;28;20181;-72
2023/01/10 07:14:27;;;;;;;13.70;3.33;;;7.60;99.90;;;;;;5005937;28;20545;-72
2023/01/10 07:16:52;;;;;;;9.33;3.27;;;7.60;99.90;;;;;;5010741;28;20615;-71
2023/01/10 07:19:18;;;;;;;7.80;3.90;;;7.60;99.90;;;;;;5015713;28;20275;-70
2023/01/10 07:21:44;;;;;;;9.50;3.73;;;7.70;99.90;;;;;;5014206;28;20191;-71
2023/01/10 07:24:10;;;;;;;13.93;3.80;;;7.70;99.90;;;;;;5018267;28;20470;-71
2023/01/10 07:26:35;;;;;;;12.97;4.30;;;7.70;99.90;;;;;;5021789;28;20227;-71
2023/01/10 07:29:01;;;;;;;11.50;3.57;;;7.70;99.90;;;;;;5016651;28;20220;-70
2023/01/10 07:31:27;;;;;;;7.20;3.97;;;7.70;99.90;;;;;;5019119;28;20242;-71
2023/01/10 07:33:53;;;;;;;11.00;4.03;;;7.60;99.90;;;;;;5018064;28;20201;-71
2023/01/10 07:36:19;;;;;;;8.37;3.03;;;7.70;99.90;;;;;;5017668;28;20457;-71
2023/01/10 07:38:44;;;;;;;15.50;3.60;;;7.70;99.90;;;;;;5019410;28;20184;-70
2023/01/10 07:41:10;;;;;;;18.43;6.23;;;7.70;99.90;;;;;;5017164;28;20443;-71
2023/01/10 07:43:35;;;;;;;8.97;3.97;;;7.80;99.90;;;;;;5018013;28;20196;-71
2023/01/10 07:46:03;;;;;;;8.30;3.30;;;7.90;99.90;;;;;;5004370;28;20284;-70
2023/01/10 07:48:29;;;;;;;10.50;3.20;;;8.00;99.90;;;;;;5015569;28;20184;-71
2023/01/10 07:50:57;;;;;;;12.30;3.53;;;8.00;99.90;;;;;;5016322;28;20540;-70
2023/01/10 07:53:23;;;;;;;9.30;3.70;;;7.90;99.90;;;;;;5017338;28;20426;-69
2023/01/10 07:55:49;;;;;;;15.50;3.60;;;7.90;99.90;;;;;;5015454;28;21043;-71
2023/01/10 07:58:15;;;;;;;13.40;3.63;;;7.90;99.90;;;;;;5013947;28;20441;-70
2023/01/10 08:00:40;;;;;;;13.53;3.73;;;7.90;99.90;;;;;;5018281;28;20435;-72
2023/01/10 08:03:06;;;;;;;11.70;3.73;;;7.90;99.90;;;;;;5013809;28;20653;-70
2023/01/10 08:05:31;;;;;;;11.73;4.17;;;7.90;99.90;;;;;;5015855;28;20184;-71
2023/01/10 08:08:12;;;;;;;8.50;3.77;;;7.90;99.90;;;;;;5019445;28;20246;-72
2023/01/10 08:10:39;;;;;;;7.97;3.33;;;7.90;99.90;;;;;;5015833;28;20616;-69
2023/01/10 08:13:05;;;;;;;17.23;4.93;;;8.00;99.90;;;;;;5019296;28;20473;-70
2023/01/10 08:15:30;;;;;;;8.40;3.70;;;8.00;99.90;;;;;;5015264;28;20833;-73
2023/01/10 08:18:00;;;;;;;8.73;4.10;;;8.00;99.90;;;;;;5013503;28;20279;-71
2023/01/10 08:20:26;;;;;;;11.40;4.27;;;8.00;99.90;;;;;;5015390;28;20188;-72
2023/01/10 08:22:52;;;;;;;9.97;3.57;;;8.10;99.90;;;;;;5013537;28;20458;-71
2023/01/10 08:25:17;;;;;;;12.40;3.60;;;8.10;99.90;;;;;;5015804;28;20550;-71
2023/01/10 08:27:43;;;;;;;14.47;3.83;;;8.10;99.90;;;;;;5012451;28;20227;-73
2023/01/10 08:30:09;;;;;;;12.13;5.97;;;8.10;99.90;;;;;;5013807;28;20298;-74
2023/01/10 08:32:35;;;;;;;14.37;4.57;;;8.10;99.90;;;;;;5015199;28;20192;-72
2023/01/10 08:35:00;;;;;;;9.57;4.00;;;8.00;99.90;;;;;;5016570;28;20435;-72
2023/01/10 08:37:26;;;;;;;15.73;3.97;;;8.00;99.90;;;;;;5017047;28;20215;-75
2023/01/10 08:39:52;;;;;;;7.37;3.63;;;8.10;99.90;;;;;;5017682;28;20330;-76
2023/01/10 08:42:17;;;;;;;8.70;3.47;;;8.00;99.90;;;;;;5020117;28;20189;-68
2023/01/10 08:44:44;;;;;;;17.30;3.53;;;8.00;99.90;;;;;;5027315;28;20196;-69
2023/01/10 08:47:09;;;;;;;19.20;4.40;;;8.00;99.90;;;;;;5012757;28;20208;-68
2023/01/10 08:49:35;;;;;;;9.77;3.63;;;7.80;99.90;;;;;;5014616;28;21652;-68
2023/01/10 08:52:01;;;;;;;9.40;3.50;;;7.80;99.90;;;;;;5013941;28;20397;-69
2023/01/10 08:54:27;;;;;;;9.73;4.60;;;7.90;99.90;;;;;;5018309;28;20180;-73
2023/01/10 08:56:53;;;;;;;8.20;3.17;;;7.90;99.90;;;;;;5011795;28;21023;-73
2023/01/10 08:59:19;;;;;;;16.07;3.23;;;7.90;99.90;;;;;;5021838;28;20508;-73
2023/01/10 09:01:44;;;;;;;7.90;3.40;;;7.90;99.90;;;;;;5016352;28;20534;-77
2023/01/10 09:04:10;;;;;;;13.27;3.10;;;7.80;99.90;;;;;;5018326;28;20311;-78
2023/01/10 09:06:36;;;;;;;10.23;5.63;;;7.90;99.90;;;;;;5020178;28;20219;-77
2023/01/10 09:09:01;;;;;;;13.03;3.83;;;8.00;99.90;;;;;;5018182;28;20425;-73
2023/01/10 09:11:27;;;;;;;10.17;3.10;;;8.00;99.90;;;;;;5022069;28;20508;-78
2023/01/10 09:13:53;;;;;;;15.60;3.63;;;8.00;99.90;;;;;;5021026;28;20747;-77
2023/01/10 09:16:18;;;;;;;7.27;3.47;;;8.10;99.90;;;;;;5011728;28;20327;-76
2023/01/10 09:18:44;;;;;;;10.33;2.90;;;8.10;99.90;;;;;;5015483;28;20212;-77
2023/01/10 09:21:09;;;;;;;8.93;3.03;;;8.00;99.90;;;;;;5019386;28;20227;-73
2023/01/10 09:23:35;;;;;;;4.90;2.83;;;8.10;99.90;;;;;;5014510;28;20181;-76
2023/01/10 09:26:01;;;;;;;8.70;3.13;;;8.00;99.90;;;;;;5016996;28;20200;-75
2023/01/10 09:28:27;;;;;;;6.23;3.07;;;8.00;99.90;;;;;;5019748;28;20287;-73
2023/01/10 09:30:52;;;;;;;8.13;2.87;;;8.00;99.90;;;;;;5016012;28;20553;-71
2023/01/10 09:33:18;;;;;;;7.00;2.47;;;8.00;99.90;;;;;;5016525;28;20242;-72
2023/01/10 09:35:44;;;;;;;7.50;3.10;;;7.90;99.90;;;;;;5021531;28;20201;-71
2023/01/10 09:38:13;;;;;;;6.57;2.60;;;7.90;99.90;;;;;;5019820;28;21423;-74
2023/01/10 09:41:06;;;;;;;9.10;3.00;;;7.80;99.90;;;;;;5030490;28;20518;-79
2023/01/10 09:43:50;;;;;;;8.83;2.80;;;7.90;99.90;;;;;;5023012;28;20433;-79
2023/01/10 09:46:55;;;;;;;9.93;3.13;;;7.90;99.90;;;;;;5015589;28;20461;-73
2023/01/10 09:49:41;;;;;;;6.63;2.83;;;7.90;99.90;;;;;;5012742;28;20462;-79
2023/01/10 09:52:19;;;;;;;8.00;3.70;;;8.00;99.90;;;;;;5016706;28;20463;-74
2023/01/10 09:54:49;;;;;;;9.50;2.60;;;8.10;99.90;;;;;;5014768;28;20433;-76
2023/01/10 09:57:20;;;;;;;5.80;2.80;;;8.10;99.90;;;;;;5016521;28;20459;-72
2023/01/10 09:59:50;;;;;;;6.33;2.70;;;8.10;99.90;;;;;;5019806;28;20814;-72
2023/01/10 10:02:22;;;;;;;9.93;2.20;;;8.10;99.90;;;;;;5012561;28;20444;-72
2023/01/10 10:04:59;;;;;;;7.70;3.17;;;8.10;99.90;;;;;;5022734;28;20422;-73
2023/01/10 10:07:25;;;;;;;11.60;2.90;;;8.10;99.90;;;;;;5019994;28;21353;-76
2023/01/10 10:09:50;;;;;;;12.13;3.23;;;8.00;99.90;;;;;;5018148;28;20458;-76
2023/01/10 10:12:42;;;;;;;5.40;2.30;;;8.00;99.90;;;;;;5019797;28;20192;-76
2023/01/10 10:15:10;;;;;;;6.37;2.60;;;8.10;99.90;;;;;;5010300;28;20185;-77
2023/01/10 10:17:44;;;;;;;9.70;2.10;;;8.20;99.90;;;;;;5017762;28;20459;-74
2023/01/10 10:20:24;;;;;;;4.33;2.80;;;7.90;99.90;;;;;;5008073;28;21012;-73
2023/01/10 10:23:17;;;;;;;8.20;2.60;;;8.00;99.90;;;;;;5008800;28;20436;-74
2023/01/10 10:26:00;;;;;;;7.83;2.30;;;8.10;99.90;;;;;;5015867;28;20914;-77
2023/01/10 10:28:43;;;;;;;10.93;2.80;;;8.20;99.90;;;;;;5009064;28;21063;-77
2023/01/10 10:31:24;;;;;;;5.47;2.33;;;8.10;99.90;;;;;;5019408;28;20997;-78
2023/01/10 10:33:58;;;;;;;9.27;2.40;;;8.10;99.90;;;;;;5019125;28;20620;-76
2023/01/10 10:36:34;;;;;;;12.60;3.70;;;8.00;99.90;;;;;;5017595;28;20462;-75
2023/01/10 10:39:01;;;;;;;9.67;3.37;;;8.20;99.90;;;;;;5018178;28;21007;-79
2023/01/10 10:41:31;;;;;;;7.30;3.10;;;8.20;99.90;;;;;;5018620;28;20418;-79
2023/01/10 10:44:03;;;;;;;5.00;2.57;;;8.30;99.90;;;;;;5016281;28;20446;-79
2023/01/10 10:46:31;;;;;;;6.03;2.50;;;8.30;99.90;;;;;;5019938;28;20463;-77
2023/01/10 10:49:47;;;;;;;7.20;2.87;;;8.30;99.90;;;;;;5019745;28;20878;-78
2023/01/10 10:52:31;;;;;;;6.63;2.57;;;8.30;99.90;;;;;;5013001;28;20442;-83
2023/01/10 10:54:57;;;;;;;9.43;2.80;;;8.30;99.90;;;;;;5014659;28;20431;-78
2023/01/10 10:57:32;;;;;;;13.70;3.33;;;8.30;99.90;;;;;;5010511;28;20451;-78
2023/01/10 11:00:00;;;;;;;5.50;2.50;;;8.30;99.90;;;;;;5017059;28;20434;-76
2023/01/10 11:02:29;;;;;;;8.07;2.70;;;8.30;99.90;;;;;;5010433;28;21116;-75
2023/01/10 11:05:02;;;;;;;6.17;2.90;;;8.30;99.90;;;;;;5019431;28;20470;-81
2023/01/10 11:07:35;;;;;;;10.47;2.70;;;8.40;99.90;;;;;;5013502;28;20454;-78
2023/01/10 11:12:49;;;;;;;8.93;3.53;;;8.50;99.90;;;;;;5017904;28;20444;-76
2023/01/10 11:15:40;;;;;;;9.90;3.17;;;8.60;99.90;;;;;;5014966;28;20431;-79
2023/01/10 11:18:15;;;;;;;11.33;2.90;;;8.70;99.90;;;;;;5016652;28;20522;-79
2023/01/10 11:21:13;;;;;;;5.90;2.70;;;8.60;99.90;;;;;;5014316;28;20442;-77
2023/01/10 11:23:39;;;;;;;7.13;3.17;;;8.60;99.90;;;;;;5016447;28;20438;-83
2023/01/10 11:26:21;;;;;;;10.13;2.77;;;8.70;99.90;;;;;;5017068;28;20835;-76
2023/01/10 11:28:46;;;;;;;11.67;3.00;;;8.70;99.90;;;;;;5012279;28;20189;-78
2023/01/10 11:31:12;;;;;;;10.53;2.57;;;8.70;99.90;;;;;;5004299;28;20921;-78
2023/01/10 11:33:40;;;;;;;8.13;2.50;;;8.70;99.90;;;;;;5014684;28;20446;-76
2023/01/10 11:36:11;;;;;;;6.13;2.40;;;8.80;99.90;;;;;;5013356;28;20952;-76
2023/01/10 11:38:37;;;;;;;6.23;2.30;;;8.90;99.90;;;;;;5017538;28;20426;-79
2023/01/10 11:41:21;;;;;;;6.63;2.53;;;9.00;99.90;;;;;;5015468;28;20435;-76
2023/01/10 11:43:47;;;;;;;11.50;2.60;;;9.00;99.90;;;;;;5019010;28;20653;-78
2023/01/10 11:46:21;;;;;;;9.80;3.13;;;9.10;99.90;;;;;;5014042;28;20445;-77
2023/01/10 11:49:05;;;;;;;8.83;2.83;;;9.00;99.90;;;;;;5017171;28;20439;-78
2023/01/10 11:51:43;;;;;;;6.63;2.40;;;9.00;99.90;;;;;;5015824;28;21141;-77
2023/01/10 11:54:18;;;;;;;10.97;2.90;;;9.00;99.90;;;;;;5014465;28;20492;-77
2023/01/10 11:57:08;;;;;;;10.00;3.30;;;9.10;99.90;;;;;;5014951;28;20539;-76
2023/01/10 11:59:34;;;;;;;5.70;2.50;;;9.00;99.90;;;;;;5015573;28;20434;-76
2023/01/10 12:02:13;;;;;;;10.90;2.63;;;9.10;99.90;;;;;;5013211;28;20510;-73
2023/01/10 12:04:43;;;;;;;10.70;2.93;;;9.00;99.90;;;;;;5001480;28;20539;-73
2023/01/10 12:07:11;;;;;;;6.50;2.90;;;8.90;99.90;;;;;;5008160;28;20860;-77
2023/01/10 12:09:41;;;;;;;6.90;2.40;;;9.00;99.90;;;;;;5009537;28;20471;-74
2023/01/10 12:12:19;;;;;;;7.60;2.63;;;8.90;99.90;;;;;;5013255;28;20440;-76
2023/01/10 12:14:46;;;;;;;8.90;2.30;;;9.00;99.90;;;;;;5012969;28;21310;-78
2023/01/10 12:17:26;;;;;;;7.47;2.90;;;8.90;99.90;;;;;;5017391;28;20455;-79
2023/01/10 12:19:55;;;;;;;8.10;2.73;;;8.90;99.90;;;;;;5018686;28;20476;-77
2023/01/10 12:22:35;;;;;;;6.83;2.57;;;9.00;99.90;;;;;;5020116;28;20858;-78
2023/01/10 12:25:13;;;;;;;11.77;3.17;;;9.00;99.90;;;;;;5014144;28;21003;-80
2023/01/10 12:27:39;;;;;;;6.43;2.40;;;9.20;99.90;;;;;;5013334;28;20459;-78
2023/01/10 12:30:11;;;;;;;12.97;2.97;;;9.50;99.90;;;;;;5018222;28;20487;-75
2023/01/10 12:32:43;;;;;;;8.57;3.00;;;9.90;99.90;;;;;;5014302;28;20188;-78
2023/01/10 12:35:38;;;;;;;9.30;2.90;;;9.90;99.90;;;;;;5015137;28;20438;-76
2023/01/10 12:39:01;;;;;;;7.67;2.57;;;9.80;99.90;;;;;;5009832;28;20435;-77
2023/01/10 12:44:09;;;;;;;4.97;2.33;;;10.00;99.90;;;;;;5023182;28;20528;-76
2023/01/10 12:44:10;;;;;;;11.67;2.67;;;10.30;99.90;;;;;;5012457;28;22746;-83
2023/01/10 12:46:48;;;;;;;7.37;2.90;;;10.80;99.90;;;;;;5014697;28;21070;-81
2023/01/10 12:49:26;;;;;;;7.17;2.80;;;11.00;99.90;;;;;;5010296;28;21017;-81
2023/01/10 12:51:57;;;;;;;5.93;2.73;;;11.20;99.90;;;;;;5013033;28;20449;-79
2023/01/10 12:54:27;;;;;;;10.37;3.17;;;11.20;99.90;;;;;;5011369;28;20444;-78
2023/01/10 12:56:56;;;;;;;5.93;2.73;;;11.20;99.90;;;;;;5011822;28;20447;-77
2023/01/10 12:59:36;;;;;;;7.37;2.70;;;11.20;99.90;;;;;;5017666;28;20431;-77
2023/01/10 13:02:16;;;;;;;4.30;2.07;;;11.10;99.90;;;;;;5015540;28;20472;-80
2023/01/10 13:04:52;;;;;;;8.77;3.00;;;11.00;99.90;;;;;;5016449;28;20542;-79
2023/01/10 13:07:18;;;;;;;4.00;2.10;;;10.90;99.90;;;;;;5016974;28;20972;-80
2023/01/10 13:09:45;;;;;;;10.60;2.40;;;10.90;99.90;;;;;;5013699;28;20681;-80
2023/01/10 13:12:23;;;;;;;5.40;2.67;;;10.70;99.90;;;;;;5016861;28;20423;-80
2023/01/10 13:15:07;;;;;;;5.97;3.10;;;10.60;99.90;;;;;;5013648;28;20782;-80
2023/01/10 13:17:44;;;;;;;7.33;3.00;;;10.70;99.90;;;;;;5006581;28;20524;-82
2023/01/10 13:20:16;;;;;;;6.80;2.37;;;10.90;99.90;;;;;;5014014;28;20442;-80